CMB7 weather

Maxville (Bourdon Farm) Airport
Ontario, Canada

Public forecast

Using degrees Celsius for public forecast. Weather courtesy of forecast.io.

METAR (pilot weather report)

Closest report is Massena International Richards Field, 19.1 nm (35.4 km) S. Retrieved 2019/05/23 11:53 UTC (1 hour ago):

KMSS 231153Z AUTO VRB03KT 10SM CLR 16/08 A3003 RMK AO2 SLP169 T01610078 10161 20078 58012

TAF (pilot weather forecast)

Closest forecast is Massena International Richards Field, 19.1 nm (35.4 km) S. Retrieved 2019/05/23 12:42 UTC (16 minutes ago):

TAF KMSS 231140Z 2312/2412 VRB04KT P6SM SCT100 FM231600 19005KT P6SM VCSH BKN100 FM231900 14008KT 5SM -SHRA BR OVC060 TEMPO 2319/2321 3SM TSRA BR OVC035CB FM240200 25014KT 6SM BR VCSH BKN050 FM240600 27011KT P6SM BKN015